sensor_id;sensor_type;location;lat;lon;timestamp;P1;durP1;ratioP1;P2;durP2;ratioP2
15104;SDS011;7653;48.994;9.212;2022-09-01T00:01:44;7.00;;;5.93;;
15104;SDS011;7653;48.994;9.212;2022-09-01T00:04:14;7.17;;;6.47;;
15104;SDS011;7653;48.994;9.212;2022-09-01T00:06:42;7.53;;;6.70;;
15104;SDS011;7653;48.994;9.212;2022-09-01T00:09:09;6.87;;;6.23;;
15104;SDS011;7653;48.994;9.212;2022-09-01T00:11:38;6.60;;;5.83;;
15104;SDS011;7653;48.994;9.212;2022-09-01T00:14:06;6.90;;;6.20;;
15104;SDS011;7653;48.994;9.212;2022-09-01T00:16:33;6.50;;;5.90;;
15104;SDS011;7653;48.994;9.212;2022-09-01T00:18:59;7.27;;;6.23;;
15104;SDS011;7653;48.994;9.212;2022-09-01T00:21:27;7.90;;;6.53;;
15104;SDS011;7653;48.994;9.212;2022-09-01T00:23:55;6.67;;;6.07;;
15104;SDS011;7653;48.994;9.212;2022-09-01T00:26:20;7.07;;;6.37;;
15104;SDS011;7653;48.994;9.212;2022-09-01T00:28:46;7.10;;;6.40;;
15104;SDS011;7653;48.994;9.212;2022-09-01T00:31:12;6.60;;;6.00;;
15104;SDS011;7653;48.994;9.212;2022-09-01T00:33:39;8.37;;;6.70;;
15104;SDS011;7653;48.994;9.212;2022-09-01T00:36:05;7.10;;;6.40;;
15104;SDS011;7653;48.994;9.212;2022-09-01T00:38:31;7.63;;;6.93;;
15104;SDS011;7653;48.994;9.212;2022-09-01T00:40:58;8.40;;;6.27;;
15104;SDS011;7653;48.994;9.212;2022-09-01T00:46:07;7.60;;;6.80;;
15104;SDS011;7653;48.994;9.212;2022-09-01T00:48:34;8.10;;;6.87;;
15104;SDS011;7653;48.994;9.212;2022-09-01T00:51:00;8.37;;;7.00;;
15104;SDS011;7653;48.994;9.212;2022-09-01T00:53:28;7.60;;;6.43;;
15104;SDS011;7653;48.994;9.212;2022-09-01T00:55:54;7.13;;;6.43;;
15104;SDS011;7653;48.994;9.212;2022-09-01T00:58:20;7.53;;;6.83;;
15104;SDS011;7653;48.994;9.212;2022-09-01T01:00:45;7.87;;;6.33;;
15104;SDS011;7653;48.994;9.212;2022-09-01T01:03:14;6.97;;;6.37;;
15104;SDS011;7653;48.994;9.212;2022-09-01T01:05:41;7.63;;;6.93;;
15104;SDS011;7653;48.994;9.212;2022-09-01T01:08:12;7.00;;;6.30;;
15104;SDS011;7653;48.994;9.212;2022-09-01T01:10:43;7.33;;;5.80;;
15104;SDS011;7653;48.994;9.212;2022-09-01T01:13:18;6.87;;;6.17;;
15104;SDS011;7653;48.994;9.212;2022-09-01T01:15:45;7.40;;;6.67;;
15104;SDS011;7653;48.994;9.212;2022-09-01T01:18:14;7.53;;;6.07;;
15104;SDS011;7653;48.994;9.212;2022-09-01T01:20:41;7.10;;;6.40;;
15104;SDS011;7653;48.994;9.212;2022-09-01T01:23:39;6.50;;;5.90;;
15104;SDS011;7653;48.994;9.212;2022-09-01T01:26:18;7.27;;;6.57;;
15104;SDS011;7653;48.994;9.212;2022-09-01T01:28:43;6.73;;;6.13;;
15104;SDS011;7653;48.994;9.212;2022-09-01T01:31:12;7.43;;;6.70;;
15104;SDS011;7653;48.994;9.212;2022-09-01T01:33:46;8.03;;;6.43;;
15104;SDS011;7653;48.994;9.212;2022-09-01T01:38:44;7.93;;;6.70;;
15104;SDS011;7653;48.994;9.212;2022-09-01T01:41:12;6.80;;;6.07;;
15104;SDS011;7653;48.994;9.212;2022-09-01T01:43:39;7.33;;;6.63;;
15104;SDS011;7653;48.994;9.212;2022-09-01T01:46:06;6.30;;;5.70;;
15104;SDS011;7653;48.994;9.212;2022-09-01T01:48:33;6.87;;;6.27;;
15104;SDS011;7653;48.994;9.212;2022-09-01T01:51:02;6.07;;;5.47;;
15104;SDS011;7653;48.994;9.212;2022-09-01T01:53:29;6.83;;;6.07;;
15104;SDS011;7653;48.994;9.212;2022-09-01T01:55:57;6.57;;;5.97;;
15104;SDS011;7653;48.994;9.212;2022-09-01T01:58:25;6.70;;;6.10;;
15104;SDS011;7653;48.994;9.212;2022-09-01T02:00:53;6.50;;;5.90;;
15104;SDS011;7653;48.994;9.212;2022-09-01T02:03:22;7.00;;;6.20;;
15104;SDS011;7653;48.994;9.212;2022-09-01T02:05:50;7.83;;;7.00;;
15104;SDS011;7653;48.994;9.212;2022-09-01T02:08:18;6.80;;;6.10;;
15104;SDS011;7653;48.994;9.212;2022-09-01T02:10:47;6.47;;;5.87;;
15104;SDS011;7653;48.994;9.212;2022-09-01T02:13:16;6.73;;;6.03;;
15104;SDS011;7653;48.994;9.212;2022-09-01T02:15:49;8.03;;;6.70;;
15104;SDS011;7653;48.994;9.212;2022-09-01T02:18:31;6.73;;;6.13;;
15104;SDS011;7653;48.994;9.212;2022-09-01T02:21:00;7.83;;;6.83;;
15104;SDS011;7653;48.994;9.212;2022-09-01T02:23:33;7.33;;;6.43;;
15104;SDS011;7653;48.994;9.212;2022-09-01T02:26:00;7.93;;;7.17;;
15104;SDS011;7653;48.994;9.212;2022-09-01T02:28:27;7.57;;;6.77;;
15104;SDS011;7653;48.994;9.212;2022-09-01T02:30:56;7.43;;;6.40;;
15104;SDS011;7653;48.994;9.212;2022-09-01T02:33:24;7.90;;;7.10;;
15104;SDS011;7653;48.994;9.212;2022-09-01T02:35:52;7.73;;;6.93;;
15104;SDS011;7653;48.994;9.212;2022-09-01T02:38:20;8.27;;;7.40;;
15104;SDS011;7653;48.994;9.212;2022-09-01T02:40:50;7.23;;;6.53;;
15104;SDS011;7653;48.994;9.212;2022-09-01T02:43:18;7.00;;;6.40;;
15104;SDS011;7653;48.994;9.212;2022-09-01T02:45:45;7.57;;;6.43;;
15104;SDS011;7653;48.994;9.212;2022-09-01T02:48:12;7.53;;;6.80;;
15104;SDS011;7653;48.994;9.212;2022-09-01T02:50:39;7.33;;;6.63;;
15104;SDS011;7653;48.994;9.212;2022-09-01T02:53:06;7.90;;;7.10;;
15104;SDS011;7653;48.994;9.212;2022-09-01T02:55:39;8.17;;;7.30;;
15104;SDS011;7653;48.994;9.212;2022-09-01T02:58:06;7.57;;;6.77;;
15104;SDS011;7653;48.994;9.212;2022-09-01T03:00:40;7.87;;;7.07;;
15104;SDS011;7653;48.994;9.212;2022-09-01T03:03:07;8.03;;;6.67;;
15104;SDS011;7653;48.994;9.212;2022-09-01T03:05:34;8.37;;;6.80;;
15104;SDS011;7653;48.994;9.212;2022-09-01T03:08:03;7.23;;;6.53;;
15104;SDS011;7653;48.994;9.212;2022-09-01T03:10:32;8.27;;;7.47;;
15104;SDS011;7653;48.994;9.212;2022-09-01T03:13:07;9.33;;;8.27;;
15104;SDS011;7653;48.994;9.212;2022-09-01T03:15:44;12.17;;;10.97;;
15104;SDS011;7653;48.994;9.212;2022-09-01T03:18:11;9.93;;;8.20;;
15104;SDS011;7653;48.994;9.212;2022-09-01T03:20:40;9.20;;;8.30;;
15104;SDS011;7653;48.994;9.212;2022-09-01T03:23:09;9.53;;;8.60;;
15104;SDS011;7653;48.994;9.212;2022-09-01T03:25:38;8.70;;;7.53;;
15104;SDS011;7653;48.994;9.212;2022-09-01T03:28:08;9.60;;;7.70;;
15104;SDS011;7653;48.994;9.212;2022-09-01T03:30:35;9.77;;;8.23;;
15104;SDS011;7653;48.994;9.212;2022-09-01T03:33:05;9.83;;;8.60;;
15104;SDS011;7653;48.994;9.212;2022-09-01T03:35:31;8.80;;;7.83;;
15104;SDS011;7653;48.994;9.212;2022-09-01T03:37:59;8.33;;;7.53;;
15104;SDS011;7653;48.994;9.212;2022-09-01T03:40:28;10.03;;;8.57;;
15104;SDS011;7653;48.994;9.212;2022-09-01T03:43:00;10.10;;;8.60;;
15104;SDS011;7653;48.994;9.212;2022-09-01T03:45:27;9.77;;;8.77;;
15104;SDS011;7653;48.994;9.212;2022-09-01T03:47:54;9.13;;;8.13;;
15104;SDS011;7653;48.994;9.212;2022-09-01T03:50:21;10.00;;;8.90;;
15104;SDS011;7653;48.994;9.212;2022-09-01T03:52:53;10.33;;;9.23;;
15104;SDS011;7653;48.994;9.212;2022-09-01T03:55:24;10.80;;;9.73;;
15104;SDS011;7653;48.994;9.212;2022-09-01T03:57:59;11.33;;;10.07;;
15104;SDS011;7653;48.994;9.212;2022-09-01T04:00:31;11.40;;;10.30;;
15104;SDS011;7653;48.994;9.212;2022-09-01T04:03:08;11.93;;;10.67;;
15104;SDS011;7653;48.994;9.212;2022-09-01T04:05:36;12.40;;;11.17;;
15104;SDS011;7653;48.994;9.212;2022-09-01T04:08:05;12.57;;;10.77;;
15104;SDS011;7653;48.994;9.212;2022-09-01T04:10:35;13.97;;;11.30;;
15104;SDS011;7653;48.994;9.212;2022-09-01T04:13:08;11.50;;;10.30;;
15104;SDS011;7653;48.994;9.212;2022-09-01T04:15:36;10.63;;;9.40;;
15104;SDS011;7653;48.994;9.212;2022-09-01T04:18:03;9.73;;;8.77;;
15104;SDS011;7653;48.994;9.212;2022-09-01T04:20:37;11.00;;;9.90;;
15104;SDS011;7653;48.994;9.212;2022-09-01T04:23:16;11.80;;;10.50;;
15104;SDS011;7653;48.994;9.212;2022-09-01T04:28:45;16.30;;;13.97;;
15104;SDS011;7653;48.994;9.212;2022-09-01T04:31:15;18.20;;;15.27;;
15104;SDS011;7653;48.994;9.212;2022-09-01T04:33:43;17.40;;;14.77;;
15104;SDS011;7653;48.994;9.212;2022-09-01T04:38:55;13.83;;;12.07;;
15104;SDS011;7653;48.994;9.212;2022-09-01T04:41:25;13.87;;;12.30;;
15104;SDS011;7653;48.994;9.212;2022-09-01T04:43:56;11.90;;;10.70;;
15104;SDS011;7653;48.994;9.212;2022-09-01T04:46:26;12.60;;;11.30;;
15104;SDS011;7653;48.994;9.212;2022-09-01T04:48:53;13.47;;;12.00;;
15104;SDS011;7653;48.994;9.212;2022-09-01T04:51:20;15.20;;;13.60;;
15104;SDS011;7653;48.994;9.212;2022-09-01T04:53:46;13.43;;;11.90;;
15104;SDS011;7653;48.994;9.212;2022-09-01T04:56:15;14.63;;;13.07;;
15104;SDS011;7653;48.994;9.212;2022-09-01T04:58:44;16.57;;;14.77;;
15104;SDS011;7653;48.994;9.212;2022-09-01T05:01:18;17.30;;;15.27;;
15104;SDS011;7653;48.994;9.212;2022-09-01T05:03:46;17.87;;;16.00;;
15104;SDS011;7653;48.994;9.212;2022-09-01T05:06:20;18.37;;;15.10;;
15104;SDS011;7653;48.994;9.212;2022-09-01T05:08:46;19.43;;;17.17;;
15104;SDS011;7653;48.994;9.212;2022-09-01T05:11:12;20.80;;;16.10;;
15104;SDS011;7653;48.994;9.212;2022-09-01T05:13:40;21.10;;;17.30;;
15104;SDS011;7653;48.994;9.212;2022-09-01T05:16:09;21.67;;;18.47;;
15104;SDS011;7653;48.994;9.212;2022-09-01T05:18:39;19.60;;;17.33;;
15104;SDS011;7653;48.994;9.212;2022-09-01T05:21:11;23.73;;;18.13;;
15104;SDS011;7653;48.994;9.212;2022-09-01T05:23:40;25.37;;;20.33;;
15104;SDS011;7653;48.994;9.212;2022-09-01T05:26:17;24.63;;;18.27;;
15104;SDS011;7653;48.994;9.212;2022-09-01T05:28:49;23.03;;;18.73;;
15104;SDS011;7653;48.994;9.212;2022-09-01T05:31:21;24.20;;;19.73;;
15104;SDS011;7653;48.994;9.212;2022-09-01T05:33:48;28.63;;;21.17;;
15104;SDS011;7653;48.994;9.212;2022-09-01T05:36:16;27.13;;;21.00;;
15104;SDS011;7653;48.994;9.212;2022-09-01T05:38:45;30.23;;;21.77;;
15104;SDS011;7653;48.994;9.212;2022-09-01T05:41:13;30.83;;;22.83;;
15104;SDS011;7653;48.994;9.212;2022-09-01T05:43:44;30.40;;;22.17;;
15104;SDS011;7653;48.994;9.212;2022-09-01T05:46:14;30.03;;;21.57;;
15104;SDS011;7653;48.994;9.212;2022-09-01T05:48:43;32.40;;;23.57;;
15104;SDS011;7653;48.994;9.212;2022-09-01T05:51:10;30.27;;;22.50;;
15104;SDS011;7653;48.994;9.212;2022-09-01T05:53:41;31.27;;;23.40;;
15104;SDS011;7653;48.994;9.212;2022-09-01T05:56:08;31.13;;;22.60;;
15104;SDS011;7653;48.994;9.212;2022-09-01T05:58:39;29.67;;;21.73;;
15104;SDS011;7653;48.994;9.212;2022-09-01T06:01:08;27.77;;;21.40;;
15104;SDS011;7653;48.994;9.212;2022-09-01T06:03:40;26.80;;;21.23;;
15104;SDS011;7653;48.994;9.212;2022-09-01T06:06:08;26.33;;;20.07;;
15104;SDS011;7653;48.994;9.212;2022-09-01T06:08:36;26.00;;;20.17;;
15104;SDS011;7653;48.994;9.212;2022-09-01T06:11:02;23.60;;;19.03;;
15104;SDS011;7653;48.994;9.212;2022-09-01T06:13:36;25.83;;;19.87;;
15104;SDS011;7653;48.994;9.212;2022-09-01T06:16:04;24.07;;;20.13;;
15104;SDS011;7653;48.994;9.212;2022-09-01T06:18:31;25.50;;;20.07;;
15104;SDS011;7653;48.994;9.212;2022-09-01T06:20:58;27.60;;;20.83;;
15104;SDS011;7653;48.994;9.212;2022-09-01T06:23:28;24.00;;;19.13;;
15104;SDS011;7653;48.994;9.212;2022-09-01T06:25:54;22.27;;;17.57;;
15104;SDS011;7653;48.994;9.212;2022-09-01T06:28:20;22.73;;;17.77;;
15104;SDS011;7653;48.994;9.212;2022-09-01T06:30:48;22.07;;;17.47;;
15104;SDS011;7653;48.994;9.212;2022-09-01T06:33:15;18.23;;;15.20;;
15104;SDS011;7653;48.994;9.212;2022-09-01T06:35:41;18.90;;;15.50;;
15104;SDS011;7653;48.994;9.212;2022-09-01T06:38:11;15.93;;;14.20;;
15104;SDS011;7653;48.994;9.212;2022-09-01T06:40:38;15.60;;;13.67;;
15104;SDS011;7653;48.994;9.212;2022-09-01T06:43:05;15.90;;;14.20;;
15104;SDS011;7653;48.994;9.212;2022-09-01T06:45:51;16.93;;;13.33;;
15104;SDS011;7653;48.994;9.212;2022-09-01T06:48:19;15.60;;;13.77;;
15104;SDS011;7653;48.994;9.212;2022-09-01T06:50:47;15.93;;;12.93;;
15104;SDS011;7653;48.994;9.212;2022-09-01T06:53:19;13.93;;;12.10;;
15104;SDS011;7653;48.994;9.212;2022-09-01T06:55:48;13.67;;;12.27;;
15104;SDS011;7653;48.994;9.212;2022-09-01T06:58:14;11.53;;;10.37;;
15104;SDS011;7653;48.994;9.212;2022-09-01T07:00:41;15.03;;;11.33;;
15104;SDS011;7653;48.994;9.212;2022-09-01T07:03:07;12.57;;;11.00;;
15104;SDS011;7653;48.994;9.212;2022-09-01T07:05:41;12.37;;;11.17;;
15104;SDS011;7653;48.994;9.212;2022-09-01T07:08:10;12.77;;;11.47;;
15104;SDS011;7653;48.994;9.212;2022-09-01T07:10:46;12.43;;;11.13;;
15104;SDS011;7653;48.994;9.212;2022-09-01T07:13:15;12.47;;;11.07;;
15104;SDS011;7653;48.994;9.212;2022-09-01T07:15:46;11.00;;;9.80;;
15104;SDS011;7653;48.994;9.212;2022-09-01T07:18:14;13.03;;;11.63;;
15104;SDS011;7653;48.994;9.212;2022-09-01T07:20:42;13.73;;;12.30;;
15104;SDS011;7653;48.994;9.212;2022-09-01T07:23:11;15.40;;;13.33;;
15104;SDS011;7653;48.994;9.212;2022-09-01T07:28:59;16.00;;;14.00;;
15104;SDS011;7653;48.994;9.212;2022-09-01T07:31:32;14.77;;;13.07;;
15104;SDS011;7653;48.994;9.212;2022-09-01T07:34:05;14.57;;;12.93;;
15104;SDS011;7653;48.994;9.212;2022-09-01T07:36:34;13.93;;;11.87;;
15104;SDS011;7653;48.994;9.212;2022-09-01T07:39:02;12.23;;;10.93;;
15104;SDS011;7653;48.994;9.212;2022-09-01T07:41:28;12.33;;;10.93;;
15104;SDS011;7653;48.994;9.212;2022-09-01T07:47:25;10.87;;;9.77;;
15104;SDS011;7653;48.994;9.212;2022-09-01T08:03:23;10.50;;;9.33;;
15104;SDS011;7653;48.994;9.212;2022-09-01T08:05:49;8.43;;;7.60;;
15104;SDS011;7653;48.994;9.212;2022-09-01T08:08:18;8.33;;;7.53;;
15104;SDS011;7653;48.994;9.212;2022-09-01T08:10:45;9.03;;;8.03;;
15104;SDS011;7653;48.994;9.212;2022-09-01T08:13:13;8.03;;;6.63;;
15104;SDS011;7653;48.994;9.212;2022-09-01T08:15:40;8.13;;;6.33;;
15104;SDS011;7653;48.994;9.212;2022-09-01T08:18:07;7.23;;;6.53;;
15104;SDS011;7653;48.994;9.212;2022-09-01T08:20:33;5.80;;;5.20;;
15104;SDS011;7653;48.994;9.212;2022-09-01T08:23:04;5.40;;;4.90;;
15104;SDS011;7653;48.994;9.212;2022-09-01T08:25:31;5.47;;;4.97;;
15104;SDS011;7653;48.994;9.212;2022-09-01T08:28:00;5.03;;;4.53;;
15104;SDS011;7653;48.994;9.212;2022-09-01T08:30:26;5.20;;;4.70;;
15104;SDS011;7653;48.994;9.212;2022-09-01T08:32:53;4.97;;;4.57;;
15104;SDS011;7653;48.994;9.212;2022-09-01T08:35:19;4.87;;;4.47;;
15104;SDS011;7653;48.994;9.212;2022-09-01T08:37:44;5.23;;;4.63;;
15104;SDS011;7653;48.994;9.212;2022-09-01T08:40:13;4.67;;;4.27;;
15104;SDS011;7653;48.994;9.212;2022-09-01T08:42:49;4.13;;;3.73;;
15104;SDS011;7653;48.994;9.212;2022-09-01T08:45:38;4.40;;;3.80;;
15104;SDS011;7653;48.994;9.212;2022-09-01T08:48:15;4.50;;;4.10;;
15104;SDS011;7653;48.994;9.212;2022-09-01T08:50:42;4.40;;;4.00;;
15104;SDS011;7653;48.994;9.212;2022-09-01T08:53:20;4.50;;;4.10;;
15104;SDS011;7653;48.994;9.212;2022-09-01T08:56:12;4.17;;;3.77;;
15104;SDS011;7653;48.994;9.212;2022-09-01T08:58:43;4.83;;;4.07;;
15104;SDS011;7653;48.994;9.212;2022-09-01T09:01:20;4.10;;;3.80;;
15104;SDS011;7653;48.994;9.212;2022-09-01T09:06:34;3.83;;;3.53;;
15104;SDS011;7653;48.994;9.212;2022-09-01T09:09:11;4.53;;;4.13;;
15104;SDS011;7653;48.994;9.212;2022-09-01T09:14:10;4.47;;;3.53;;
15104;SDS011;7653;48.994;9.212;2022-09-01T09:16:51;4.20;;;3.80;;
15104;SDS011;7653;48.994;9.212;2022-09-01T09:19:22;4.17;;;3.80;;
15104;SDS011;7653;48.994;9.212;2022-09-01T09:21:58;4.30;;;3.80;;
15104;SDS011;7653;48.994;9.212;2022-09-01T09:26:54;4.33;;;3.87;;
15104;SDS011;7653;48.994;9.212;2022-09-01T09:29:23;4.60;;;4.00;;
15104;SDS011;7653;48.994;9.212;2022-09-01T09:32:04;4.47;;;4.00;;
15104;SDS011;7653;48.994;9.212;2022-09-01T09:34:34;4.07;;;3.40;;
15104;SDS011;7653;48.994;9.212;2022-09-01T09:42:34;5.23;;;3.60;;
15104;SDS011;7653;48.994;9.212;2022-09-01T09:45:20;4.70;;;3.50;;
15104;SDS011;7653;48.994;9.212;2022-09-01T09:47:50;3.53;;;3.23;;
15104;SDS011;7653;48.994;9.212;2022-09-01T09:50:24;3.63;;;3.30;;
15104;SDS011;7653;48.994;9.212;2022-09-01T09:53:08;4.47;;;3.70;;
15104;SDS011;7653;48.994;9.212;2022-09-01T09:55:35;3.53;;;2.77;;
15104;SDS011;7653;48.994;9.212;2022-09-01T09:58:07;3.30;;;3.00;;
15104;SDS011;7653;48.994;9.212;2022-09-01T10:00:36;3.80;;;3.50;;
15104;SDS011;7653;48.994;9.212;2022-09-01T10:03:07;3.93;;;3.60;;
15104;SDS011;7653;48.994;9.212;2022-09-01T10:05:37;4.83;;;3.90;;
15104;SDS011;7653;48.994;9.212;2022-09-01T10:08:05;5.00;;;3.83;;
15104;SDS011;7653;48.994;9.212;2022-09-01T10:13:16;5.20;;;3.93;;
15104;SDS011;7653;48.994;9.212;2022-09-01T10:15:48;3.87;;;3.53;;
15104;SDS011;7653;48.994;9.212;2022-09-01T10:18:22;4.37;;;3.47;;
15104;SDS011;7653;48.994;9.212;2022-09-01T10:23:24;4.43;;;3.70;;
15104;SDS011;7653;48.994;9.212;2022-09-01T10:25:52;4.33;;;3.63;;
15104;SDS011;7653;48.994;9.212;2022-09-01T10:28:22;3.83;;;3.53;;
15104;SDS011;7653;48.994;9.212;2022-09-01T10:30:49;4.63;;;3.80;;
15104;SDS011;7653;48.994;9.212;2022-09-01T10:33:18;4.80;;;3.47;;
15104;SDS011;7653;48.994;9.212;2022-09-01T10:35:47;3.60;;;3.30;;
15104;SDS011;7653;48.994;9.212;2022-09-01T10:40:45;3.30;;;3.00;;
15104;SDS011;7653;48.994;9.212;2022-09-01T10:43:44;3.13;;;2.90;;
15104;SDS011;7653;48.994;9.212;2022-09-01T10:48:49;3.03;;;2.80;;
15104;SDS011;7653;48.994;9.212;2022-09-01T10:53:49;3.30;;;3.00;;
15104;SDS011;7653;48.994;9.212;2022-09-01T10:56:19;4.60;;;2.83;;
15104;SDS011;7653;48.994;9.212;2022-09-01T11:09:40;3.00;;;2.80;;
15104;SDS011;7653;48.994;9.212;2022-09-01T11:17:21;5.03;;;3.10;;
15104;SDS011;7653;48.994;9.212;2022-09-01T11:41:58;3.47;;;3.17;;
15104;SDS011;7653;48.994;9.212;2022-09-01T11:47:07;4.57;;;3.00;;
15104;SDS011;7653;48.994;9.212;2022-09-01T11:49:38;3.83;;;2.37;;
15104;SDS011;7653;48.994;9.212;2022-09-01T11:52:13;4.60;;;2.50;;
15104;SDS011;7653;48.994;9.212;2022-09-01T11:54:41;3.43;;;2.50;;
15104;SDS011;7653;48.994;9.212;2022-09-01T11:59:43;2.72;;;2.50;;
15104;SDS011;7653;48.994;9.212;2022-09-01T12:02:15;3.05;;;2.72;;
15104;SDS011;7653;48.994;9.212;2022-09-01T12:04:43;3.27;;;2.97;;
15104;SDS011;7653;48.994;9.212;2022-09-01T12:07:12;2.90;;;2.70;;
15104;SDS011;7653;48.994;9.212;2022-09-01T12:09:49;2.72;;;2.53;;
15104;SDS011;7653;48.994;9.212;2022-09-01T12:12:48;2.73;;;2.53;;
15104;SDS011;7653;48.994;9.212;2022-09-01T12:15:21;2.53;;;2.33;;
15104;SDS011;7653;48.994;9.212;2022-09-01T12:17:49;4.27;;;2.83;;
15104;SDS011;7653;48.994;9.212;2022-09-01T12:20:19;4.17;;;3.27;;
15104;SDS011;7653;48.994;9.212;2022-09-01T12:22:51;3.77;;;2.73;;
15104;SDS011;7653;48.994;9.212;2022-09-01T12:25:17;3.30;;;3.00;;
15104;SDS011;7653;48.994;9.212;2022-09-01T12:27:49;3.17;;;2.80;;
15104;SDS011;7653;48.994;9.212;2022-09-01T12:30:15;2.77;;;2.57;;
15104;SDS011;7653;48.994;9.212;2022-09-01T12:32:41;3.50;;;3.00;;
15104;SDS011;7653;48.994;9.212;2022-09-01T12:35:23;2.87;;;2.30;;
15104;SDS011;7653;48.994;9.212;2022-09-01T12:37:51;5.30;;;3.13;;
15104;SDS011;7653;48.994;9.212;2022-09-01T12:40:36;3.00;;;2.70;;
15104;SDS011;7653;48.994;9.212;2022-09-01T12:43:02;3.03;;;2.73;;
15104;SDS011;7653;48.994;9.212;2022-09-01T12:53:50;3.70;;;2.60;;
15104;SDS011;7653;48.994;9.212;2022-09-01T12:56:39;2.80;;;2.60;;
15104;SDS011;7653;48.994;9.212;2022-09-01T13:01:38;3.47;;;2.88;;
15104;SDS011;7653;48.994;9.212;2022-09-01T13:04:27;3.60;;;3.30;;
15104;SDS011;7653;48.994;9.212;2022-09-01T13:06:54;3.40;;;3.10;;
15104;SDS011;7653;48.994;9.212;2022-09-01T13:09:24;3.57;;;3.27;;
15104;SDS011;7653;48.994;9.212;2022-09-01T13:11:50;3.50;;;2.97;;
15104;SDS011;7653;48.994;9.212;2022-09-01T13:14:17;3.63;;;3.07;;
15104;SDS011;7653;48.994;9.212;2022-09-01T13:16:43;4.67;;;3.07;;
15104;SDS011;7653;48.994;9.212;2022-09-01T13:19:09;3.73;;;3.40;;
15104;SDS011;7653;48.994;9.212;2022-09-01T13:21:34;3.67;;;3.30;;
15104;SDS011;7653;48.994;9.212;2022-09-01T13:24:02;3.43;;;3.17;;
15104;SDS011;7653;48.994;9.212;2022-09-01T13:26:29;3.20;;;3.00;;
15104;SDS011;7653;48.994;9.212;2022-09-01T13:28:55;3.27;;;2.97;;
15104;SDS011;7653;48.994;9.212;2022-09-01T13:31:22;3.75;;;2.90;;
15104;SDS011;7653;48.994;9.212;2022-09-01T13:33:48;2.80;;;2.60;;
15104;SDS011;7653;48.994;9.212;2022-09-01T13:36:13;2.90;;;2.60;;
15104;SDS011;7653;48.994;9.212;2022-09-01T13:38:39;4.28;;;2.53;;
15104;SDS011;7653;48.994;9.212;2022-09-01T13:41:05;2.60;;;2.40;;
15104;SDS011;7653;48.994;9.212;2022-09-01T13:43:32;4.53;;;2.40;;
15104;SDS011;7653;48.994;9.212;2022-09-01T13:45:59;7.53;;;2.78;;
15104;SDS011;7653;48.994;9.212;2022-09-01T13:48:25;4.68;;;2.78;;
15104;SDS011;7653;48.994;9.212;2022-09-01T13:50:52;4.88;;;2.65;;
15104;SDS011;7653;48.994;9.212;2022-09-01T13:53:18;2.67;;;2.20;;
15104;SDS011;7653;48.994;9.212;2022-09-01T13:55:45;3.15;;;2.30;;
15104;SDS011;7653;48.994;9.212;2022-09-01T13:58:11;2.40;;;2.20;;
15104;SDS011;7653;48.994;9.212;2022-09-01T14:00:39;2.47;;;2.28;;
15104;SDS011;7653;48.994;9.212;2022-09-01T14:03:16;2.85;;;2.40;;
15104;SDS011;7653;48.994;9.212;2022-09-01T14:05:45;2.33;;;2.00;;
15104;SDS011;7653;48.994;9.212;2022-09-01T14:08:14;4.63;;;2.40;;
15104;SDS011;7653;48.994;9.212;2022-09-01T14:10:43;3.83;;;2.20;;
15104;SDS011;7653;48.994;9.212;2022-09-01T14:13:11;2.58;;;2.30;;
15104;SDS011;7653;48.994;9.212;2022-09-01T14:15:37;2.00;;;1.80;;
15104;SDS011;7653;48.994;9.212;2022-09-01T14:18:04;3.65;;;2.03;;
15104;SDS011;7653;48.994;9.212;2022-09-01T14:20:31;8.00;;;2.53;;
15104;SDS011;7653;48.994;9.212;2022-09-01T14:22:59;5.53;;;2.30;;
15104;SDS011;7653;48.994;9.212;2022-09-01T14:25:27;5.65;;;2.15;;
15104;SDS011;7653;48.994;9.212;2022-09-01T14:27:53;2.95;;;2.05;;
15104;SDS011;7653;48.994;9.212;2022-09-01T14:30:21;4.18;;;2.35;;
15104;SDS011;7653;48.994;9.212;2022-09-01T14:32:55;3.13;;;2.20;;
15104;SDS011;7653;48.994;9.212;2022-09-01T14:35:22;2.47;;;2.28;;
15104;SDS011;7653;48.994;9.212;2022-09-01T14:37:48;7.18;;;2.63;;
15104;SDS011;7653;48.994;9.212;2022-09-01T14:40:15;8.35;;;2.70;;
15104;SDS011;7653;48.994;9.212;2022-09-01T14:42:42;6.72;;;2.10;;
15104;SDS011;7653;48.994;9.212;2022-09-01T14:45:10;3.22;;;2.08;;
15104;SDS011;7653;48.994;9.212;2022-09-01T14:47:37;4.20;;;2.20;;
15104;SDS011;7653;48.994;9.212;2022-09-01T14:50:03;3.03;;;2.00;;
15104;SDS011;7653;48.994;9.212;2022-09-01T14:52:30;7.47;;;2.28;;
15104;SDS011;7653;48.994;9.212;2022-09-01T14:54:56;2.45;;;1.90;;
15104;SDS011;7653;48.994;9.212;2022-09-01T14:57:22;2.28;;;2.08;;
15104;SDS011;7653;48.994;9.212;2022-09-01T14:59:47;4.07;;;2.03;;
15104;SDS011;7653;48.994;9.212;2022-09-01T15:02:13;2.30;;;2.10;;
15104;SDS011;7653;48.994;9.212;2022-09-01T15:04:39;2.97;;;2.15;;
15104;SDS011;7653;48.994;9.212;2022-09-01T15:07:06;2.80;;;1.90;;
15104;SDS011;7653;48.994;9.212;2022-09-01T15:09:32;3.20;;;2.22;;
15104;SDS011;7653;48.994;9.212;2022-09-01T15:11:57;3.13;;;2.30;;
15104;SDS011;7653;48.994;9.212;2022-09-01T15:14:23;2.63;;;2.42;;
15104;SDS011;7653;48.994;9.212;2022-09-01T15:16:49;3.80;;;2.28;;
15104;SDS011;7653;48.994;9.212;2022-09-01T15:19:15;3.60;;;2.35;;
15104;SDS011;7653;48.994;9.212;2022-09-01T15:21:41;2.75;;;2.33;;
15104;SDS011;7653;48.994;9.212;2022-09-01T15:24:09;2.05;;;1.90;;
15104;SDS011;7653;48.994;9.212;2022-09-01T15:26:35;2.20;;;1.95;;
15104;SDS011;7653;48.994;9.212;2022-09-01T15:29:03;2.42;;;2.20;;
15104;SDS011;7653;48.994;9.212;2022-09-01T15:31:30;2.75;;;2.50;;
15104;SDS011;7653;48.994;9.212;2022-09-01T15:33:58;2.50;;;2.30;;
15104;SDS011;7653;48.994;9.212;2022-09-01T15:36:25;2.17;;;1.98;;
15104;SDS011;7653;48.994;9.212;2022-09-01T15:38:53;2.67;;;2.40;;
15104;SDS011;7653;48.994;9.212;2022-09-01T15:41:24;4.25;;;2.50;;
15104;SDS011;7653;48.994;9.212;2022-09-01T15:43:55;2.50;;;2.30;;
15104;SDS011;7653;48.994;9.212;2022-09-01T15:46:21;2.40;;;2.20;;
15104;SDS011;7653;48.994;9.212;2022-09-01T15:48:47;2.63;;;2.43;;
15104;SDS011;7653;48.994;9.212;2022-09-01T15:53:48;3.13;;;2.40;;
15104;SDS011;7653;48.994;9.212;2022-09-01T15:56:14;3.20;;;2.90;;
15104;SDS011;7653;48.994;9.212;2022-09-01T15:58:42;4.07;;;2.47;;
15104;SDS011;7653;48.994;9.212;2022-09-01T16:01:11;3.28;;;2.40;;
15104;SDS011;7653;48.994;9.212;2022-09-01T16:03:38;2.60;;;2.40;;
15104;SDS011;7653;48.994;9.212;2022-09-01T16:06:03;2.80;;;2.53;;
15104;SDS011;7653;48.994;9.212;2022-09-01T16:08:30;2.80;;;2.60;;
15104;SDS011;7653;48.994;9.212;2022-09-01T16:10:57;3.20;;;2.90;;
15104;SDS011;7653;48.994;9.212;2022-09-01T16:13:22;2.78;;;2.58;;
15104;SDS011;7653;48.994;9.212;2022-09-01T16:16:03;3.00;;;2.53;;
15104;SDS011;7653;48.994;9.212;2022-09-01T16:18:57;2.60;;;2.40;;
15104;SDS011;7653;48.994;9.212;2022-09-01T16:24:13;3.70;;;2.60;;
15104;SDS011;7653;48.994;9.212;2022-09-01T16:26:39;3.05;;;2.58;;
15104;SDS011;7653;48.994;9.212;2022-09-01T16:29:10;3.60;;;2.73;;
15104;SDS011;7653;48.994;9.212;2022-09-01T16:31:41;2.70;;;2.50;;
15104;SDS011;7653;48.994;9.212;2022-09-01T16:34:15;2.80;;;2.53;;
15104;SDS011;7653;48.994;9.212;2022-09-01T16:39:33;2.43;;;2.23;;
15104;SDS011;7653;48.994;9.212;2022-09-01T16:42:12;3.87;;;2.47;;
15104;SDS011;7653;48.994;9.212;2022-09-01T16:45:24;2.50;;;2.30;;
15104;SDS011;7653;48.994;9.212;2022-09-01T17:01:50;3.07;;;2.33;;
15104;SDS011;7653;48.994;9.212;2022-09-01T17:09:12;2.20;;;2.00;;
15104;SDS011;7653;48.994;9.212;2022-09-01T17:11:51;2.67;;;2.10;;
15104;SDS011;7653;48.994;9.212;2022-09-01T17:14:44;2.60;;;2.13;;
15104;SDS011;7653;48.994;9.212;2022-09-01T17:17:14;3.20;;;2.43;;
15104;SDS011;7653;48.994;9.212;2022-09-01T17:19:44;2.40;;;2.20;;
15104;SDS011;7653;48.994;9.212;2022-09-01T17:22:16;3.13;;;2.30;;
15104;SDS011;7653;48.994;9.212;2022-09-01T17:24:51;2.53;;;2.33;;
15104;SDS011;7653;48.994;9.212;2022-09-01T17:27:32;2.97;;;2.30;;
15104;SDS011;7653;48.994;9.212;2022-09-01T17:30:16;2.50;;;2.30;;